Time;durP1;ratioP1;P1;durP2;ratioP2;P2;SDS_P1;SDS_P2;PMS_P1;PMS_P2;Temp;Humidity;BMP_temperature;BMP_pressure;BME280_temperature;BME280_humidity;BME280_pressure;Samples;Min_cycle;Max_cycle;Signal;HPM_P1;HPM_P2
2023/01/27 00:00:13;;;;;;;20.35;12.73;;;;;;;-2.95;100.00;97507.69;4960327;28;20074;-63
2023/01/27 00:02:41;;;;;;;22.88;12.57;;;;;;;-2.92;100.00;97507.34;4959697;28;20050;-63
2023/01/27 00:05:10;;;;;;;24.25;11.70;;;;;;;-2.92;100.00;97504.69;4961338;28;20043;-63
2023/01/27 00:07:37;;;;;;;19.88;11.65;;;;;;;-2.90;100.00;97498.28;4962058;28;20089;-63
2023/01/27 00:10:04;;;;;;;24.83;13.63;;;;;;;-2.97;100.00;97499.91;4957567;28;20043;-63
2023/01/27 00:15:16;;;;;;;22.80;11.43;;;;;;;-2.98;100.00;97494.75;4961438;28;21411;-63
2023/01/27 00:17:43;;;;;;;27.05;13.55;;;;;;;-2.80;100.00;97498.09;4961328;28;20058;-63
2023/01/27 00:20:10;;;;;;;23.10;12.70;;;;;;;-2.84;100.00;97496.75;4968157;28;20461;-63
2023/01/27 00:25:22;;;;;;;22.23;12.32;;;;;;;-2.88;100.00;97504.22;4959337;28;20082;-63
2023/01/27 00:27:49;;;;;;;25.08;13.43;;;;;;;-2.97;100.00;97496.41;4961923;28;20566;-64
2023/01/27 00:30:16;;;;;;;21.33;12.40;;;;;;;-2.95;100.00;97495.25;4965296;28;20074;-63
2023/01/27 00:35:28;;;;;;;20.20;11.57;;;;;;;-2.84;100.00;97496.75;4962439;28;20557;-63
2023/01/27 00:37:55;;;;;;;24.38;13.45;;;;;;;-2.87;100.00;97492.63;4957797;28;20039;-63
2023/01/27 00:40:21;;;;;;;22.73;13.30;;;;;;;-2.96;100.00;97490.97;4965455;28;20411;-63
2023/01/27 00:42:48;;;;;;;21.95;10.57;;;;;;;-3.11;100.00;97498.69;4963957;28;20062;-63
2023/01/27 00:48:00;;;;;;;21.33;11.13;;;;;;;-3.07;100.00;97493.91;4973186;28;20075;-63
2023/01/27 00:50:26;;;;;;;22.60;13.00;;;;;;;-3.02;100.00;97492.44;4962682;28;20074;-63
2023/01/27 00:52:53;;;;;;;22.48;11.25;;;;;;;-3.16;100.00;97488.56;4957081;28;20120;-63
2023/01/27 00:55:19;;;;;;;21.17;11.95;;;;;;;-3.03;100.00;97489.94;4966884;28;20049;-64
2023/01/27 00:57:46;;;;;;;21.50;12.00;;;;;;;-2.97;100.00;97494.59;4964094;28;20049;-63
2023/01/27 01:00:14;;;;;;;22.00;12.48;;;;;;;-2.84;100.00;97502.06;4963667;28;20046;-63
2023/01/27 01:02:41;;;;;;;21.90;12.10;;;;;;;-2.89;100.00;97496.44;4957769;28;20146;-63
2023/01/27 01:05:08;;;;;;;22.35;13.00;;;;;;;-2.81;100.00;97492.97;4960824;28;20509;-63
2023/01/27 01:07:35;;;;;;;20.45;10.95;;;;;;;-2.74;100.00;97504.56;4957298;28;20045;-63
2023/01/27 01:10:01;;;;;;;20.95;12.15;;;;;;;-2.75;100.00;97493.16;4962973;28;20126;-64
2023/01/27 01:12:28;;;;;;;18.95;10.63;;;;;;;-2.75;100.00;97490.50;4952945;28;20050;-62
2023/01/27 01:14:54;;;;;;;22.15;12.00;;;;;;;-2.67;100.00;97504.75;4969065;28;20046;-62
2023/01/27 01:17:21;;;;;;;22.10;12.25;;;;;;;-2.72;100.00;97497.31;4963457;28;20783;-62
2023/01/27 01:19:48;;;;;;;19.17;11.35;;;;;;;-2.65;100.00;97503.59;4963210;28;20049;-62
2023/01/27 01:22:14;;;;;;;15.32;8.93;;;;;;;-2.77;99.42;97508.38;4962226;28;20070;-62
2023/01/27 01:24:41;;;;;;;17.15;9.93;;;;;;;-2.91;99.52;97507.19;4957870;28;20415;-62
2023/01/27 01:27:07;;;;;;;18.55;9.20;;;;;;;-2.89;100.00;97507.88;4964368;28;20648;-62
2023/01/27 01:29:33;;;;;;;22.38;11.18;;;;;;;-2.82;100.00;97507.22;4966338;28;20121;-62
2023/01/27 01:32:00;;;;;;;17.98;8.95;;;;;;;-2.78;99.38;97504.09;4955532;28;20067;-63
2023/01/27 01:34:30;;;;;;;17.48;9.27;;;;;;;-2.81;98.14;97503.56;4955177;28;20044;-62
2023/01/27 01:36:56;;;;;;;19.25;9.57;;;;;;;-2.80;99.58;97499.94;4970360;28;20075;-62
2023/01/27 01:39:23;;;;;;;16.75;9.02;;;;;;;-2.80;98.70;97495.44;4956816;28;20135;-62
2023/01/27 01:41:49;;;;;;;19.50;9.38;;;;;;;-2.73;99.06;97490.31;4958353;28;20039;-62
2023/01/27 01:44:20;;;;;;;20.15;9.63;;;;;;;-2.75;98.93;97493.16;4966533;28;20444;-61
2023/01/27 01:46:46;;;;;;;17.35;9.68;;;;;;;-2.75;99.10;97494.97;4960816;28;20053;-62
2023/01/27 01:49:15;;;;;;;17.05;8.65;;;;;;;-2.85;100.00;97481.06;4964912;28;20106;-62
2023/01/27 01:51:45;;;;;;;16.10;9.60;;;;;;;-2.64;99.19;97485.88;4959301;28;20043;-62
2023/01/27 01:54:29;;;;;;;17.92;10.00;;;;;;;-2.59;98.20;97478.25;4970053;28;20066;-62
2023/01/27 01:57:30;;;;;;;19.02;9.63;;;;;;;-2.64;98.16;97485.88;4955545;28;20046;-62
2023/01/27 02:00:05;;;;;;;16.95;8.68;;;;;;;-2.69;97.53;97474.94;4958724;28;20437;-62
2023/01/27 02:02:40;;;;;;;16.85;9.10;;;;;;;-2.76;98.27;97482.72;4961714;28;20046;-62
2023/01/27 02:05:06;;;;;;;14.93;8.05;;;;;;;-2.78;98.86;97477.56;4962962;28;20050;-62
2023/01/27 02:07:43;;;;;;;20.75;9.60;;;;;;;-2.72;99.71;97470.78;4958332;28;20098;-62
2023/01/27 02:10:11;;;;;;;18.75;9.95;;;;;;;-2.71;98.88;97479.56;4961533;28;20118;-62
2023/01/27 02:12:38;;;;;;;17.52;9.63;;;;;;;-2.66;100.00;97480.72;4955836;28;20126;-61
2023/01/27 02:15:07;;;;;;;16.20;9.23;;;;;;;-2.83;99.77;97469.28;4975766;28;20051;-62
2023/01/27 02:17:34;;;;;;;19.38;8.70;;;;;;;-2.78;99.67;97471.44;4960436;28;20046;-63
2023/01/27 02:20:13;;;;;;;17.63;9.38;;;;;;;-2.78;99.78;97471.44;4957150;28;20628;-62
2023/01/27 02:23:06;;;;;;;16.85;9.73;;;;;;;-2.82;98.79;97478.91;4961222;28;20093;-62
2023/01/27 02:25:35;;;;;;;20.55;9.50;;;;;;;-2.78;99.31;97477.56;4965778;28;20070;-61
2023/01/27 02:28:04;;;;;;;17.50;8.70;;;;;;;-2.79;99.46;97475.09;4961852;28;20039;-61
2023/01/27 02:30:31;;;;;;;15.38;9.35;;;;;;;-2.80;99.45;97484.84;4959093;28;20078;-62
2023/01/27 02:32:58;;;;;;;17.63;9.30;;;;;;;-2.80;98.97;97474.25;4956813;28;20706;-62
2023/01/27 02:35:36;;;;;;;17.45;10.18;;;;;;;-2.81;100.00;97467.28;4950485;28;20043;-62
2023/01/27 02:38:06;;;;;;;18.73;9.95;;;;;;;-2.78;100.00;97472.28;4957221;28;20043;-62
2023/01/27 02:40:35;;;;;;;21.80;9.38;;;;;;;-2.78;99.98;97480.22;4958191;28;20670;-62
2023/01/27 02:43:03;;;;;;;16.15;10.23;;;;;;;-2.81;100.00;97483.19;4965401;28;20043;-61
2023/01/27 02:45:30;;;;;;;18.50;9.68;;;;;;;-2.85;100.00;97468.63;4957498;28;20046;-62
2023/01/27 02:47:58;;;;;;;20.30;10.40;;;;;;;-2.84;100.00;97469.47;4965437;28;20053;-61
2023/01/27 02:50:25;;;;;;;20.73;11.65;;;;;;;-2.94;100.00;97459.00;4959944;28;20126;-62
2023/01/27 02:52:52;;;;;;;20.95;11.32;;;;;;;-3.01;100.00;97453.53;4952766;28;20044;-62
2023/01/27 02:55:20;;;;;;;18.55;9.52;;;;;;;-3.05;100.00;97454.84;4958021;28;20134;-62
2023/01/27 02:57:47;;;;;;;17.55;9.60;;;;;;;-3.14;100.00;97462.78;4955215;28;20066;-62
2023/01/27 03:00:34;;;;;;;18.77;10.80;;;;;;;-3.08;100.00;97461.31;4949544;28;20055;-62
2023/01/27 03:03:00;;;;;;;17.80;9.95;;;;;;;-2.98;100.00;97462.97;4963968;28;20075;-61
2023/01/27 03:05:27;;;;;;;18.40;10.55;;;;;;;-3.02;100.00;97473.88;4960316;28;20074;-61
2023/01/27 03:07:53;;;;;;;17.60;10.27;;;;;;;-2.97;100.00;97467.28;4964273;28;20161;-61
2023/01/27 03:10:20;;;;;;;14.77;9.23;;;;;;;-2.97;100.00;97469.91;4962251;28;20049;-61
2023/01/27 03:12:46;;;;;;;18.38;10.15;;;;;;;-2.90;100.00;97470.94;4951433;28;20058;-62
2023/01/27 03:18:12;;;;;;;19.75;11.00;;;;;;;-2.94;100.00;97466.94;4962193;28;20050;-61
2023/01/27 03:20:40;;;;;;;15.00;9.25;;;;;;;-2.89;100.00;97469.94;4959721;28;20047;-62
2023/01/27 03:23:07;;;;;;;17.23;9.75;;;;;;;-2.86;100.00;97464.31;4964677;28;20093;-61
2023/01/27 03:25:34;;;;;;;21.23;11.43;;;;;;;-2.86;100.00;97464.31;4964026;28;20127;-61
2023/01/27 03:28:01;;;;;;;16.85;9.68;;;;;;;-2.85;100.00;97468.63;4969623;28;20522;-61
2023/01/27 03:30:46;;;;;;;21.10;10.68;;;;;;;-2.89;100.00;97468.13;4958053;28;20143;-61
2023/01/27 03:33:17;;;;;;;20.10;10.90;;;;;;;-2.87;100.00;97470.63;4957830;28;20066;-61
2023/01/27 03:47:01;;;;;;;20.77;12.07;;;;;;;-2.92;100.00;97463.16;4964600;28;20051;-62
2023/01/27 03:49:28;;;;;;;23.92;11.60;;;;;;;-2.87;100.00;97474.06;4966590;28;20494;-62
2023/01/27 03:51:55;;;;;;;21.30;11.75;;;;;;;-2.96;100.00;97475.06;4958168;28;20074;-62
2023/01/27 03:54:21;;;;;;;21.50;11.23;;;;;;;-2.99;100.00;97479.88;4957233;28;20558;-62
2023/01/27 03:56:49;;;;;;;24.85;12.90;;;;;;;-3.01;100.00;97485.31;4964168;28;20047;-62
2023/01/27 03:59:16;;;;;;;21.27;12.30;;;;;;;-3.01;100.00;97487.97;4959938;28;20054;-62
2023/01/27 04:01:43;;;;;;;21.35;11.40;;;;;;;-2.96;100.00;97495.41;4963997;28;20046;-61
2023/01/27 04:06:57;;;;;;;21.42;11.38;;;;;;;-3.05;100.00;97489.28;4959752;28;20046;-61
2023/01/27 04:09:26;;;;;;;22.05;12.07;;;;;;;-3.08;100.00;97498.38;4968125;28;20593;-61
2023/01/27 04:11:56;;;;;;;22.73;11.15;;;;;;;-2.99;100.00;97498.41;4964629;28;20121;-61
2023/01/27 04:14:28;;;;;;;22.23;11.70;;;;;;;-2.95;100.00;97495.25;4970530;28;20098;-64
2023/01/27 04:16:57;;;;;;;17.67;10.57;;;;;;;-2.96;100.00;97493.59;4961076;28;20074;-65
2023/01/27 04:19:24;;;;;;;21.60;10.73;;;;;;;-2.92;100.00;97487.00;4972065;28;20129;-64
2023/01/27 04:21:52;;;;;;;22.80;11.82;;;;;;;-2.84;100.00;97483.50;4958212;28;20058;-64
2023/01/27 04:24:23;;;;;;;20.30;10.85;;;;;;;-2.93;100.00;97484.50;4958633;28;20043;-64
2023/01/27 04:27:04;;;;;;;18.30;10.73;;;;;;;-2.92;100.00;97497.59;4963602;28;20051;-64
2023/01/27 04:29:33;;;;;;;20.83;11.15;;;;;;;-2.83;100.00;97490.50;4972391;28;20053;-62
2023/01/27 04:32:02;;;;;;;20.75;11.32;;;;;;;-2.85;100.00;97500.41;4958722;28;20729;-62
2023/01/27 04:34:29;;;;;;;20.77;11.30;;;;;;;-2.82;100.00;97499.25;4965316;28;20039;-61
2023/01/27 04:36:56;;;;;;;21.00;11.65;;;;;;;-2.90;100.00;97503.56;4960157;28;20043;-62
2023/01/27 04:39:24;;;;;;;21.95;11.68;;;;;;;-2.94;100.00;97496.09;4965920;28;20047;-62
2023/01/27 04:41:51;;;;;;;18.90;10.02;;;;;;;-2.89;100.00;97497.28;4955641;28;20053;-61
2023/01/27 04:44:19;;;;;;;18.65;11.55;;;;;;;-2.88;100.00;97504.22;4967452;28;20058;-61
2023/01/27 04:46:46;;;;;;;23.27;11.98;;;;;;;-2.82;100.00;97504.56;4963762;28;20043;-61
2023/01/27 04:49:12;;;;;;;20.52;11.30;;;;;;;-2.83;100.00;97505.56;4967048;28;20070;-62
2023/01/27 04:51:39;;;;;;;20.85;11.55;;;;;;;-2.86;100.00;97501.41;4962759;28;20046;-62
2023/01/27 04:54:06;;;;;;;22.50;12.35;;;;;;;-2.88;100.00;97501.56;4972856;28;20151;-62
2023/01/27 04:56:43;;;;;;;22.70;11.98;;;;;;;-2.92;100.00;97494.94;4937495;28;20078;-62
2023/01/27 04:59:11;;;;;;;20.10;11.40;;;;;;;-2.88;100.00;97504.22;4936636;28;20039;-62
2023/01/27 05:01:38;;;;;;;19.35;11.07;;;;;;;-2.79;100.00;97509.53;4963779;28;20455;-65
2023/01/27 05:04:04;;;;;;;22.42;11.98;;;;;;;-2.80;100.00;97511.34;4972764;28;20125;-64
2023/01/27 05:06:31;;;;;;;20.15;10.38;;;;;;;-2.83;100.00;97506.41;4958570;28;20171;-64
2023/01/27 05:08:58;;;;;;;20.50;10.98;;;;;;;-2.83;100.00;97502.91;4955250;28;20511;-64
2023/01/27 05:11:24;;;;;;;22.73;12.32;;;;;;;-2.88;100.00;97498.09;4960476;28;20049;-64
2023/01/27 05:13:51;;;;;;;19.25;10.65;;;;;;;-2.89;100.00;97502.56;4962589;28;20046;-64
2023/01/27 05:16:22;;;;;;;21.83;11.65;;;;;;;-2.85;100.00;97492.47;4961263;28;20526;-64
2023/01/27 05:18:51;;;;;;;20.85;10.93;;;;;;;-2.79;100.00;97497.13;4956735;28;20047;-64
2023/01/27 05:21:23;;;;;;;19.90;11.10;;;;;;;-2.88;100.00;97493.63;4962420;28;20042;-64
2023/01/27 05:23:50;;;;;;;20.95;11.60;;;;;;;-2.85;100.00;97496.97;4955333;28;20113;-61
2023/01/27 05:26:19;;;;;;;20.45;11.35;;;;;;;-2.92;100.00;97494.94;4959026;28;20093;-61
2023/01/27 05:28:48;;;;;;;26.50;11.27;;;;;;;-2.92;100.00;97491.44;4956185;28;20043;-62
2023/01/27 05:31:19;;;;;;;19.05;10.30;;;;;;;-2.93;100.00;97497.75;4950927;28;20043;-61
2023/01/27 05:33:49;;;;;;;17.80;10.57;;;;;;;-2.88;100.00;97495.44;4957898;28;20046;-61
2023/01/27 05:36:17;;;;;;;23.73;10.35;;;;;;;-2.88;100.00;97490.13;4950952;28;20049;-61
2023/01/27 05:38:44;;;;;;;21.90;11.07;;;;;;;-2.87;100.00;97491.81;4948572;28;20043;-61
2023/01/27 05:41:13;;;;;;;21.88;11.73;;;;;;;-2.90;100.00;97502.72;4960597;28;20710;-62
2023/01/27 05:43:41;;;;;;;23.27;11.02;;;;;;;-2.88;100.00;97519.28;4959147;28;20414;-62
2023/01/27 05:46:09;;;;;;;18.20;9.68;;;;;;;-2.85;100.00;97526.09;4955488;28;20043;-61
2023/01/27 05:48:39;;;;;;;18.30;10.10;;;;;;;-2.82;100.00;97517.81;4961973;28;20038;-62
2023/01/27 05:51:06;;;;;;;15.48;9.15;;;;;;;-2.82;100.00;97529.25;4952761;28;20069;-61
2023/01/27 05:53:33;;;;;;;17.85;9.45;;;;;;;-2.79;100.00;97528.94;4961316;28;20530;-64
2023/01/27 05:56:00;;;;;;;21.33;9.82;;;;;;;-2.78;100.00;97530.59;4961574;28;20047;-64
2023/01/27 05:58:27;;;;;;;17.63;8.48;;;;;;;-2.72;100.00;97538.88;4961351;28;20055;-64
2023/01/27 06:00:54;;;;;;;16.38;9.63;;;;;;;-2.76;100.00;97539.19;4964054;28;20557;-61
2023/01/27 06:03:21;;;;;;;17.80;9.85;;;;;;;-2.83;100.00;97532.06;4956873;28;20704;-60
2023/01/27 06:05:56;;;;;;;19.60;10.32;;;;;;;-2.85;100.00;97536.72;4957799;28;20039;-60
2023/01/27 06:08:24;;;;;;;18.40;9.48;;;;;;;-2.81;100.00;97535.38;4957835;28;20105;-61
2023/01/27 06:10:52;;;;;;;18.20;9.95;;;;;;;-2.81;100.00;97536.19;4962933;28;20050;-61
2023/01/27 06:13:21;;;;;;;17.65;9.18;;;;;;;-2.81;100.00;97530.06;4958935;28;20038;-60
2023/01/27 06:15:48;;;;;;;17.27;9.65;;;;;;;-2.78;100.00;97533.25;4957390;28;20446;-58
2023/01/27 06:18:16;;;;;;;14.88;8.90;;;;;;;-2.61;100.00;97526.13;4959532;28;20082;-61
2023/01/27 06:20:43;;;;;;;16.40;8.93;;;;;;;-2.65;100.00;97529.28;4957683;28;20046;-61
2023/01/27 06:23:12;;;;;;;17.13;9.52;;;;;;;-2.70;100.00;97529.75;4964541;28;20621;-61
2023/01/27 06:25:41;;;;;;;19.50;9.38;;;;;;;-2.79;100.00;97526.28;4953444;28;20130;-61
2023/01/27 06:28:08;;;;;;;15.30;8.90;;;;;;;-2.88;100.00;97525.44;4960983;28;20042;-60
2023/01/27 06:30:40;;;;;;;;;;;;;;;-2.86;100.00;97522.63;4962077;28;20478;-58
2023/01/27 06:33:07;;;;;;;20.73;8.98;;;;;;;-2.87;100.00;97520.97;4960865;28;19928;-61
2023/01/27 06:35:36;;;;;;;17.05;8.63;;;;;;;-2.86;100.00;97525.25;4955124;28;20093;-60
2023/01/27 06:38:04;;;;;;;19.10;9.90;;;;;;;-2.83;100.00;97532.91;4961719;28;20035;-60
2023/01/27 06:40:32;;;;;;;19.75;11.02;;;;;;;-2.95;100.00;97523.59;4964422;28;20113;-61
2023/01/27 06:42:58;;;;;;;21.63;10.73;;;;;;;-2.93;100.00;97530.38;4961841;28;20530;-60
2023/01/27 06:45:26;;;;;;;26.20;12.38;;;;;;;-2.87;100.00;97539.50;4954840;28;20078;-61
2023/01/27 06:47:57;;;;;;;20.55;10.63;;;;;;;-2.82;100.00;97554.91;4956551;28;20098;-61
2023/01/27 06:50:25;;;;;;;21.27;10.35;;;;;;;-2.78;100.00;97554.44;4955317;28;20461;-60
2023/01/27 06:52:57;;;;;;;18.83;9.75;;;;;;;-2.62;100.00;97558.09;4952180;28;20061;-60
2023/01/27 06:55:24;;;;;;;21.50;10.25;;;;;;;-2.64;100.00;97563.59;4949720;28;20059;-59
2023/01/27 06:57:51;;;;;;;17.83;9.05;;;;;;;-2.58;100.00;97567.38;4932425;28;20047;-60
2023/01/27 07:00:18;;;;;;;17.70;10.00;;;;;;;-2.68;100.00;97556.97;4953420;28;20053;-61
2023/01/27 07:02:44;;;;;;;19.40;9.85;;;;;;;-2.80;100.00;97561.72;4951842;28;20042;-58
2023/01/27 07:05:12;;;;;;;19.58;10.05;;;;;;;-2.75;100.00;97564.72;4949701;28;20049;-59
2023/01/27 07:07:38;;;;;;;18.65;10.07;;;;;;;-2.70;100.00;97574.81;4956363;28;20517;-61
2023/01/27 07:10:06;;;;;;;18.00;10.30;;;;;;;-2.70;100.00;97572.19;4954384;28;20137;-60
2023/01/27 07:12:37;;;;;;;19.60;10.93;;;;;;;-2.68;100.00;97572.03;4949497;28;20071;-60
2023/01/27 07:15:05;;;;;;;17.90;10.18;;;;;;;-2.60;100.00;97580.00;4953102;28;20074;-60
2023/01/27 07:17:32;;;;;;;17.90;10.15;;;;;;;-2.56;100.00;97583.97;4961160;28;20126;-59
2023/01/27 07:19:58;;;;;;;20.77;10.73;;;;;;;-2.60;100.00;97598.56;4958667;28;20050;-58
2023/01/27 07:22:25;;;;;;;18.08;9.20;;;;;;;-2.55;100.00;97598.88;4953227;28;20051;-60
2023/01/27 07:24:54;;;;;;;18.95;10.85;;;;;;;-2.77;100.00;97593.19;4956619;28;20145;-59
2023/01/27 07:27:22;;;;;;;18.90;9.70;;;;;;;-2.67;100.00;97601.03;4956320;28;20047;-61
2023/01/27 07:29:49;;;;;;;18.15;11.00;;;;;;;-2.55;100.00;97595.44;4956094;28;20050;-59
2023/01/27 07:32:16;;;;;;;21.48;12.02;;;;;;;-2.77;100.00;97601.16;4956225;28;20055;-60
2023/01/27 07:34:43;;;;;;;19.75;10.32;;;;;;;-2.66;100.00;97604.50;4959457;28;20043;-57
2023/01/27 07:37:09;;;;;;;20.17;10.00;;;;;;;-2.57;100.00;97594.75;4952946;28;20662;-60
2023/01/27 07:39:36;;;;;;;18.77;10.25;;;;;;;-2.52;100.00;97603.88;4950581;28;20049;-61
2023/01/27 07:42:04;;;;;;;16.02;9.45;;;;;;;-2.62;100.00;97608.47;4963215;28;20043;-59
2023/01/27 07:44:30;;;;;;;18.40;9.50;;;;;;;-2.58;100.00;97612.47;4957104;28;20126;-60
2023/01/27 07:46:58;;;;;;;17.88;10.52;;;;;;;-2.52;100.00;97609.19;4965350;28;20050;-61
2023/01/27 07:49:25;;;;;;;16.92;8.45;;;;;;;-2.59;100.00;97608.16;4960990;28;20046;-61
2023/01/27 07:51:53;;;;;;;15.82;7.65;;;;;;;-2.47;100.00;97610.50;4961907;28;20130;-59
2023/01/27 07:54:19;;;;;;;17.48;10.23;;;;;;;-2.45;100.00;97613.81;4956851;28;20062;-60
2023/01/27 07:56:46;;;;;;;16.33;8.88;;;;;;;-2.33;99.26;97614.34;4961404;28;20406;-60
2023/01/27 07:59:13;;;;;;;16.33;8.93;;;;;;;-2.35;99.59;97619.81;4956859;28;20314;-59
2023/01/27 08:01:40;;;;;;;17.20;9.27;;;;;;;-2.26;99.56;97623.31;4949179;28;20337;-60
2023/01/27 08:04:07;;;;;;;17.83;8.85;;;;;;;-2.30;100.00;97621.97;4934949;28;20039;-59
2023/01/27 08:06:36;;;;;;;15.25;8.32;;;;;;;-2.26;98.93;97624.16;4942088;28;20118;-62
2023/01/27 08:09:02;;;;;;;17.80;8.57;;;;;;;-2.51;99.40;97624.09;4952086;28;20046;-58
2023/01/27 08:11:29;;;;;;;13.63;8.13;;;;;;;-2.27;99.00;97630.44;4958934;28;20043;-60
2023/01/27 08:13:55;;;;;;;14.85;8.00;;;;;;;-2.57;100.00;97624.75;4956519;28;20433;-60
2023/01/27 08:16:22;;;;;;;17.58;9.02;;;;;;;-2.65;100.00;97622.88;4953070;28;20510;-58
2023/01/27 08:18:48;;;;;;;18.13;9.55;;;;;;;-2.67;100.00;97624.88;4960046;28;20054;-61
2023/01/27 08:21:15;;;;;;;17.73;9.50;;;;;;;-2.66;100.00;97626.53;4950993;28;20130;-57
2023/01/27 08:23:41;;;;;;;21.58;10.75;;;;;;;-2.61;100.00;97626.88;4959793;28;20393;-61
2023/01/27 08:26:08;;;;;;;20.05;9.88;;;;;;;-2.68;100.00;97625.88;4960845;28;20061;-57
2023/01/27 08:28:37;;;;;;;20.15;9.40;;;;;;;-2.70;100.00;97633.16;4958846;28;20507;-61
2023/01/27 08:31:14;;;;;;;16.33;9.98;;;;;;;-2.50;100.00;97633.69;4958416;28;20101;-57
2023/01/27 08:33:44;;;;;;;19.25;9.75;;;;;;;-2.50;100.00;97633.69;4955392;28;20494;-58
2023/01/27 08:36:16;;;;;;;21.55;10.73;;;;;;;-2.54;100.00;97626.25;4956074;28;20074;-57
2023/01/27 08:38:44;;;;;;;19.42;11.60;;;;;;;-2.62;100.00;97640.28;4959059;28;20051;-59
2023/01/27 08:41:18;;;;;;;23.40;12.25;;;;;;;-2.76;100.00;97636.44;4960450;28;20396;-61
2023/01/27 08:43:44;;;;;;;16.98;9.15;;;;;;;-2.53;100.00;97644.66;4959756;28;20119;-57
2023/01/27 08:46:12;;;;;;;22.52;12.25;;;;;;;-2.47;100.00;97644.97;4960560;28;20550;-59
2023/01/27 08:48:38;;;;;;;20.83;9.63;;;;;;;-2.60;100.00;97646.28;4964085;28;20051;-59
2023/01/27 08:51:06;;;;;;;22.40;11.48;;;;;;;-2.69;100.00;97647.25;4952307;28;20581;-57
2023/01/27 08:53:35;;;;;;;19.08;9.80;;;;;;;-2.70;100.00;97653.53;4960933;28;20101;-60
2023/01/27 08:56:08;;;;;;;19.30;11.13;;;;;;;-2.78;100.00;97649.00;4958719;28;20098;-58
2023/01/27 08:58:34;;;;;;;22.15;12.55;;;;;;;-2.82;100.00;97642.38;4950310;28;20535;-58
2023/01/27 09:01:04;;;;;;;20.60;10.55;;;;;;;-2.81;100.00;97649.31;4956163;28;20047;-59
2023/01/27 09:03:31;;;;;;;20.27;10.15;;;;;;;-2.67;100.00;97650.53;4948337;28;20055;-59
2023/01/27 09:05:59;;;;;;;21.48;10.20;;;;;;;-2.63;100.00;97654.53;4934284;28;20042;-59
2023/01/27 09:08:27;;;;;;;25.08;12.73;;;;;;;-2.75;100.00;97660.16;4963610;28;20046;-60
2023/01/27 09:10:54;;;;;;;26.55;13.60;;;;;;;-2.79;100.00;97660.63;4958916;28;20464;-59
2023/01/27 09:13:23;;;;;;;33.33;18.52;;;;;;;-2.75;100.00;97654.84;4956909;28;20039;-60
2023/01/27 09:15:51;;;;;;;31.20;18.27;;;;;;;-2.77;100.00;97648.84;4950546;28;20073;-58
2023/01/27 09:18:18;;;;;;;37.25;19.02;;;;;;;-2.82;100.00;97666.22;4951066;28;20051;-57
2023/01/27 09:20:45;;;;;;;23.50;12.15;;;;;;;-2.72;100.00;97661.66;4959085;28;20086;-59
2023/01/27 09:23:11;;;;;;;24.95;11.27;;;;;;;-2.54;100.00;97650.09;4957327;28;20043;-61
2023/01/27 09:25:38;;;;;;;21.67;11.07;;;;;;;-2.33;100.00;97659.44;4958183;28;20046;-59
2023/01/27 09:28:05;;;;;;;20.77;10.15;;;;;;;-2.26;100.00;97650.66;4953634;28;20105;-57
2023/01/27 09:30:31;;;;;;;20.70;11.23;;;;;;;-2.35;100.00;97654.31;4957037;28;20050;-58
2023/01/27 09:33:00;;;;;;;20.30;11.35;;;;;;;-2.53;100.00;97657.06;4953526;28;20073;-60
2023/01/27 09:35:38;;;;;;;18.00;10.13;;;;;;;-2.60;100.00;97651.56;4950201;28;20054;-59
2023/01/27 09:38:05;;;;;;;18.17;9.93;;;;;;;-2.45;100.00;97664.19;4952293;28;20078;-59
2023/01/27 09:40:46;;;;;;;18.67;10.20;;;;;;;-2.50;100.00;97670.81;4945244;28;20051;-60
2023/01/27 09:43:45;;;;;;;17.67;9.25;;;;;;;-2.52;100.00;97670.16;4945671;28;20440;-60
2023/01/27 09:46:45;;;;;;;16.15;7.78;;;;;;;-2.50;99.71;97660.22;4956921;28;20081;-59
2023/01/27 09:49:46;;;;;;;15.85;8.40;;;;;;;-2.44;99.82;97669.34;4953054;28;20067;-60
2023/01/27 09:52:57;;;;;;;17.80;9.07;;;;;;;-2.41;100.00;97665.53;4953495;28;20113;-59
2023/01/27 09:55:35;;;;;;;16.70;8.45;;;;;;;-2.25;98.55;97665.59;4958030;28;20070;-58
2023/01/27 09:58:09;;;;;;;21.50;9.70;;;;;;;-2.12;97.82;97661.63;4950950;28;20384;-59
2023/01/27 10:00:52;;;;;;;22.08;10.65;;;;;;;-1.98;97.66;97663.63;4959563;28;20042;-61
2023/01/27 10:03:25;;;;;;;15.60;8.35;;;;;;;-1.90;95.73;97669.94;4946984;28;20054;-60
2023/01/27 10:06:22;;;;;;;20.05;9.90;;;;;;;-1.90;96.42;97667.28;4952428;28;20063;-60
2023/01/27 10:09:27;;;;;;;22.42;11.15;;;;;;;-2.07;96.99;97663.81;4954121;28;20521;-60
2023/01/27 10:12:12;;;;;;;19.40;10.65;;;;;;;-1.92;96.99;97671.94;4953716;28;20061;-58
2023/01/27 10:14:42;;;;;;;17.70;9.20;;;;;;;-2.03;97.07;97659.84;4954512;28;20510;-58
2023/01/27 10:17:33;;;;;;;19.70;10.07;;;;;;;-2.34;99.15;97663.91;4948309;28;20071;-58
2023/01/27 10:20:34;;;;;;;20.52;10.25;;;;;;;-2.15;98.46;97669.91;4951752;28;20051;-57
2023/01/27 10:23:28;;;;;;;16.23;8.65;;;;;;;-1.85;96.12;97657.00;4956397;28;20101;-59
2023/01/27 10:26:07;;;;;;;16.70;7.82;;;;;;;-1.83;96.32;97657.69;4950660;28;20455;-56
2023/01/27 10:28:35;;;;;;;16.85;8.30;;;;;;;-1.97;96.52;97660.00;4950212;28;20054;-57
2023/01/27 10:31:12;;;;;;;15.48;8.10;;;;;;;-1.67;95.17;97669.31;4959664;28;20569;-58
2023/01/27 10:34:02;;;;;;;14.82;7.47;;;;;;;-1.84;95.65;97658.69;4950181;28;20039;-57
2023/01/27 10:36:48;;;;;;;12.27;6.80;;;;;;;-1.62;94.80;97659.00;4950872;28;20049;-60
2023/01/27 10:39:20;;;;;;;22.80;10.15;;;;;;;-1.66;94.72;97657.69;4951452;28;20109;-59
2023/01/27 10:41:56;;;;;;;17.38;8.20;;;;;;;-1.61;92.80;97652.69;4948394;28;20051;-57
2023/01/27 10:44:38;;;;;;;17.35;8.32;;;;;;;-1.38;91.77;97652.00;4963868;28;20073;-57
2023/01/27 10:47:14;;;;;;;24.80;9.63;;;;;;;-1.61;91.78;97658.00;4965048;28;20060;-58
2023/01/27 10:49:48;;;;;;;21.73;10.32;;;;;;;-1.88;93.94;97658.16;4955407;28;20094;-58
2023/01/27 10:52:18;;;;;;;24.00;10.55;;;;;;;-1.87;94.02;97665.16;4953604;28;20778;-57
2023/01/27 10:55:03;;;;;;;15.95;8.05;;;;;;;-1.68;93.29;97670.28;4953189;28;20071;-58
2023/01/27 10:57:35;;;;;;;16.30;7.43;;;;;;;-1.68;92.97;97663.16;4964899;28;20051;-58
2023/01/27 11:00:29;;;;;;;25.33;10.73;;;;;;;-1.91;93.74;97670.94;4957414;28;20043;-57
2023/01/27 11:03:28;;;;;;;21.30;10.65;;;;;;;-1.74;93.35;97664.66;4957287;28;20050;-58
2023/01/27 11:06:01;;;;;;;23.80;11.18;;;;;;;-1.70;93.49;97657.16;4957903;28;20430;-58
2023/01/27 11:08:32;;;;;;;15.10;7.38;;;;;;;-1.74;94.30;97656.69;4966043;28;20053;-58
2023/01/27 11:14:11;;;;;;;16.42;7.60;;;;;;;-1.89;94.73;97659.16;4956272;28;20062;-58
2023/01/27 11:16:40;;;;;;;14.27;7.07;;;;;;;-1.89;94.52;97668.94;4961376;28;20043;-59
2023/01/27 11:19:27;;;;;;;19.50;9.75;;;;;;;-2.10;94.38;97662.31;4957194;28;20059;-60
2023/01/27 11:21:54;;;;;;;21.13;9.52;;;;;;;-2.11;95.34;97665.94;4959303;28;20070;-57
2023/01/27 11:24:44;;;;;;;21.60;10.23;;;;;;;-1.91;95.26;97671.78;4963924;28;20117;-58
2023/01/27 11:27:28;;;;;;;16.75;7.90;;;;;;;-1.91;96.06;97663.00;4964896;28;20066;-58
2023/01/27 11:30:03;;;;;;;15.82;7.25;;;;;;;-1.77;94.19;97667.63;4954387;28;20047;-58
2023/01/27 11:32:51;;;;;;;17.45;8.45;;;;;;;-1.70;94.67;97665.13;4957666;28;20098;-58
2023/01/27 11:35:18;;;;;;;19.35;8.75;;;;;;;-1.79;94.92;97663.47;4959699;28;20045;-59
2023/01/27 11:37:47;;;;;;;14.02;7.57;;;;;;;-1.80;95.03;97659.19;4959823;28;20053;-58
2023/01/27 11:40:36;;;;;;;17.75;8.88;;;;;;;-1.91;95.20;97660.34;4953707;28;20117;-59
2023/01/27 11:43:04;;;;;;;16.40;7.78;;;;;;;-1.84;95.14;97648.06;4951816;28;20039;-58
2023/01/27 11:45:34;;;;;;;21.52;9.95;;;;;;;-1.87;96.29;97653.69;4959815;28;20039;-58
2023/01/27 11:48:04;;;;;;;24.35;11.18;;;;;;;-1.89;96.23;97647.72;4969933;28;20125;-57
2023/01/27 11:50:33;;;;;;;16.95;8.35;;;;;;;-1.93;96.59;97643.72;4967104;28;20047;-58
2023/01/27 11:53:15;;;;;;;16.27;8.30;;;;;;;-1.79;96.40;97643.09;4957079;28;20043;-59
2023/01/27 11:55:47;;;;;;;16.92;8.32;;;;;;;-1.63;94.64;97634.28;4951844;28;20138;-59
2023/01/27 11:58:30;;;;;;;15.05;7.03;;;;;;;-1.74;94.45;97627.47;4951830;28;20047;-59
2023/01/27 12:01:02;;;;;;;17.55;9.13;;;;;;;-1.69;95.74;97634.97;4961856;28;20521;-60